Time;durP1;ratioP1;P1;durP2;ratioP2;P2;SDS_P1;SDS_P2;PMS_P1;PMS_P2;Temp;Humidity;BMP_temperature;BMP_pressure;BME280_temperature;BME280_humidity;BME280_pressure;Samples;Min_cycle;Max_cycle;Signal;HPM_P1;HPM_P2
2024/01/08 00:02:17;;;;;;;6.47;2.45;;;;;;;1.83;100.00;102945.03;5065696;28;20048;-72
2024/01/08 00:04:44;;;;;;;6.18;2.10;;;;;;;1.73;100.00;102950.72;5067478;28;20048;-72
2024/01/08 00:07:11;;;;;;;7.32;2.55;;;;;;;1.70;100.00;102948.91;5055050;28;20077;-72
2024/01/08 00:09:37;;;;;;;5.65;2.60;;;;;;;1.73;100.00;102958.44;5060225;28;20052;-72
2024/01/08 00:12:04;;;;;;;7.22;2.72;;;;;;;1.65;100.00;102968.53;5067806;28;20053;-72
2024/01/08 00:14:31;;;;;;;10.15;2.72;;;;;;;1.67;100.00;102966.88;5064206;28;20496;-72
2024/01/08 00:16:58;;;;;;;6.68;2.53;;;;;;;1.61;100.00;102972.72;5049656;28;20463;-72
2024/01/08 00:19:24;;;;;;;7.03;2.63;;;;;;;1.63;100.00;102973.63;5065535;28;20051;-72
2024/01/08 00:21:51;;;;;;;6.82;2.60;;;;;;;1.67;100.00;102975.50;5062466;28;20088;-72
2024/01/08 00:24:18;;;;;;;6.53;2.63;;;;;;;1.73;100.00;102979.97;5057242;28;20044;-72
2024/01/08 00:26:45;;;;;;;6.57;2.55;;;;;;;1.74;100.00;102976.59;5051424;28;20504;-72
2024/01/08 00:29:12;;;;;;;7.63;2.60;;;;;;;1.70;100.00;102977.31;5061003;28;20390;-72
2024/01/08 00:31:38;;;;;;;5.75;2.45;;;;;;;1.70;100.00;102967.84;5054767;28;20118;-72
2024/01/08 00:34:05;;;;;;;8.10;2.72;;;;;;;1.70;100.00;102974.75;5051044;28;20060;-72
2024/01/08 00:36:34;;;;;;;5.72;2.35;;;;;;;1.54;100.00;102942.34;5057624;28;20135;-72
2024/01/08 00:39:01;;;;;;;6.13;2.22;;;;;;;1.68;100.00;102973.78;5052884;28;20110;-72
2024/01/08 00:41:28;;;;;;;7.18;2.60;;;;;;;1.69;100.00;102980.72;5053130;28;20399;-72
2024/01/08 00:43:54;;;;;;;5.28;2.25;;;;;;;1.61;100.00;102969.22;5065474;28;20127;-72
2024/01/08 00:46:21;;;;;;;6.15;2.42;;;;;;;1.64;100.00;102977.97;5064974;28;20048;-72
2024/01/08 00:48:48;;;;;;;7.05;2.47;;;;;;;1.63;100.00;102980.47;5065359;28;20044;-72
2024/01/08 00:51:14;;;;;;;7.38;2.53;;;;;;;1.61;100.00;102975.28;5062867;28;20041;-72
2024/01/08 00:53:41;;;;;;;5.80;2.22;;;;;;;1.67;100.00;102982.38;5057234;28;20061;-72
2024/01/08 00:56:08;;;;;;;5.30;2.20;;;;;;;1.66;100.00;102980.59;5061142;28;20048;-73
2024/01/08 00:58:36;;;;;;;8.88;2.35;;;;;;;1.72;100.00;102975.66;5065935;28;20041;-72
2024/01/08 01:01:03;;;;;;;4.82;2.00;;;;;;;1.68;100.00;102968.59;5064035;28;20413;-72
2024/01/08 01:03:30;;;;;;;5.65;2.25;;;;;;;1.65;100.00;102971.97;5058290;28;20079;-72
2024/01/08 01:05:57;;;;;;;7.82;2.75;;;;;;;1.54;100.00;102977.59;5060927;28;20106;-72
2024/01/08 01:08:24;;;;;;;6.40;2.40;;;;;;;1.64;100.00;102987.41;5060276;28;20351;-73
2024/01/08 01:10:51;;;;;;;5.80;2.15;;;;;;;1.62;100.00;102979.63;5052772;28;20389;-72
2024/01/08 01:13:18;;;;;;;8.65;2.95;;;;;;;1.64;100.00;102988.28;5060067;28;20063;-72
2024/01/08 01:15:44;;;;;;;6.97;2.35;;;;;;;1.63;100.00;102980.47;5058176;28;20111;-72
2024/01/08 01:18:11;;;;;;;5.70;2.30;;;;;;;1.64;100.00;102967.63;5058526;28;20371;-72
2024/01/08 01:20:38;;;;;;;6.85;2.45;;;;;;;1.69;100.00;102979.00;5063195;28;20502;-72
2024/01/08 01:23:05;;;;;;;5.75;2.38;;;;;;;1.61;100.00;102971.81;5053338;28;20060;-72
2024/01/08 01:25:31;;;;;;;5.68;2.20;;;;;;;1.57;100.00;102980.28;5054088;28;20056;-72
2024/01/08 01:27:58;;;;;;;5.90;2.28;;;;;;;1.64;100.00;102982.25;5062124;28;20045;-72
2024/01/08 01:30:25;;;;;;;5.97;2.40;;;;;;;1.64;100.00;102985.69;5056743;28;20133;-72
2024/01/08 01:32:52;;;;;;;6.32;2.33;;;;;;;1.61;100.00;102989.88;5053837;28;20048;-72
2024/01/08 01:35:18;;;;;;;7.05;2.42;;;;;;;1.50;100.00;102990.38;5058191;28;20051;-72
2024/01/08 01:37:45;;;;;;;7.47;2.35;;;;;;;1.56;100.00;102999.16;5058212;28;20110;-72
2024/01/08 01:40:12;;;;;;;4.97;2.03;;;;;;;1.59;100.00;102986.38;5071359;28;20139;-72
2024/01/08 01:42:39;;;;;;;9.18;2.67;;;;;;;1.49;100.00;102985.19;5071933;28;20063;-72
2024/01/08 01:45:07;;;;;;;4.38;2.10;;;;;;;1.45;100.00;102984.19;5074382;28;20447;-72
2024/01/08 01:47:34;;;;;;;6.97;2.20;;;;;;;1.47;100.00;102998.03;5071378;28;20070;-72
2024/01/08 01:50:01;;;;;;;7.40;2.80;;;;;;;1.50;100.00;103011.03;5052479;28;20130;-72
2024/01/08 01:52:28;;;;;;;5.47;2.13;;;;;;;1.36;100.00;102981.25;5076787;28;20065;-72
2024/01/08 01:54:55;;;;;;;7.72;2.38;;;;;;;1.43;100.00;103005.59;5068736;28;20055;-72
2024/01/08 01:57:22;;;;;;;5.93;2.22;;;;;;;1.46;100.00;103004.00;5070271;28;20048;-72
2024/01/08 01:59:49;;;;;;;5.53;2.30;;;;;;;1.38;100.00;103007.13;5069823;28;20056;-72
2024/01/08 02:02:16;;;;;;;6.65;2.30;;;;;;;1.37;100.00;103003.66;5064259;28;20048;-72
2024/01/08 02:04:43;;;;;;;5.38;2.25;;;;;;;1.38;100.00;103004.53;5068892;28;20056;-72
2024/01/08 02:07:10;;;;;;;5.70;2.17;;;;;;;1.44;100.00;103025.44;5072258;28;20083;-72
2024/01/08 02:09:37;;;;;;;4.68;1.75;;;;;;;1.44;100.00;103013.41;5072003;28;20060;-72
2024/01/08 02:12:05;;;;;;;5.45;2.10;;;;;;;1.45;100.00;103022.00;5076012;28;20044;-72
2024/01/08 02:14:32;;;;;;;5.07;2.22;;;;;;;1.14;100.00;103011.44;5060710;28;20049;-72
2024/01/08 02:16:59;;;;;;;4.15;2.03;;;;;;;1.13;100.00;103013.94;5067042;28;20045;-71
2024/01/08 02:19:26;;;;;;;3.85;1.90;;;;;;;1.07;100.00;103016.31;5078485;28;20048;-72
2024/01/08 02:21:52;;;;;;;4.60;1.80;;;;;;;1.05;100.00;103024.00;5065735;28;20099;-72
2024/01/08 02:24:19;;;;;;;4.68;1.92;;;;;;;1.03;100.00;103030.78;5069746;28;20048;-72
2024/01/08 02:26:46;;;;;;;4.93;2.25;;;;;;;1.02;100.00;103035.88;5068943;28;20105;-72
2024/01/08 02:29:12;;;;;;;5.07;1.90;;;;;;;1.03;100.00;103037.66;5078702;28;20044;-72
2024/01/08 02:31:40;;;;;;;4.28;1.92;;;;;;;1.01;100.00;103037.59;5070943;28;20474;-72
2024/01/08 02:34:06;;;;;;;3.83;1.80;;;;;;;1.03;100.00;103043.69;5068724;28;20052;-72
2024/01/08 02:36:33;;;;;;;5.60;2.00;;;;;;;1.00;100.00;103038.41;5069498;28;20072;-72
2024/01/08 02:39:00;;;;;;;5.10;2.10;;;;;;;0.84;100.00;103031.78;5071829;28;20067;-72
2024/01/08 02:41:26;;;;;;;6.28;2.83;;;;;;;0.85;100.00;103038.69;5067340;28;20052;-72
2024/01/08 02:43:53;;;;;;;6.75;2.05;;;;;;;1.42;100.00;103043.44;5066066;28;20057;-72
2024/01/08 02:46:20;;;;;;;5.25;1.90;;;;;;;1.64;100.00;103045.09;5054023;28;20090;-72
2024/01/08 02:48:46;;;;;;;4.25;1.80;;;;;;;1.63;100.00;103034.72;5071956;28;20055;-72
2024/01/08 02:51:16;;;;;;;4.45;1.80;;;;;;;1.26;100.00;103042.00;5070196;28;20086;-72
2024/01/08 02:53:44;;;;;;;4.18;1.65;;;;;;;1.06;100.00;103045.50;5066668;28;20056;-72
2024/01/08 02:56:20;;;;;;;4.30;1.67;;;;;;;1.04;100.00;103042.00;5064918;28;20055;-72
2024/01/08 02:58:48;;;;;;;4.60;1.90;;;;;;;0.86;100.00;103021.50;5073596;28;20124;-72
2024/01/08 03:01:16;;;;;;;4.03;1.80;;;;;;;0.92;100.00;103044.94;5069295;28;20055;-72
2024/01/08 03:03:42;;;;;;;5.07;2.20;;;;;;;0.89;100.00;103045.72;5070554;28;20130;-72
2024/01/08 03:06:09;;;;;;;5.95;1.98;;;;;;;0.87;100.00;103046.50;5070405;28;20083;-72
2024/01/08 03:08:36;;;;;;;4.28;1.70;;;;;;;1.06;100.00;103046.41;5062116;28;20045;-72
2024/01/08 03:11:03;;;;;;;4.50;1.98;;;;;;;1.07;100.00;103050.72;5065659;28;20057;-72
2024/01/08 03:13:30;;;;;;;4.40;1.73;;;;;;;1.00;100.00;103038.41;5070627;28;20044;-72
2024/01/08 03:15:56;;;;;;;5.10;2.25;;;;;;;0.98;100.00;103057.25;5070897;28;20432;-72
2024/01/08 03:18:23;;;;;;;4.35;1.83;;;;;;;0.88;100.00;103049.13;5069819;28;20405;-72
2024/01/08 03:20:50;;;;;;;4.00;1.60;;;;;;;0.87;100.00;103049.94;5070645;28;20056;-72
2024/01/08 03:23:16;;;;;;;4.72;1.80;;;;;;;0.89;100.00;103058.63;5058663;28;20845;-72
2024/01/08 03:25:43;;;;;;;4.20;1.90;;;;;;;0.87;100.00;103049.09;5068240;28;20837;-72
2024/01/08 03:28:10;;;;;;;7.38;1.83;;;;;;;0.79;100.00;103047.88;5071062;28;20044;-72
2024/01/08 03:30:36;;;;;;;4.68;1.80;;;;;;;0.88;100.00;103054.28;5071102;28;20044;-72
2024/01/08 03:33:03;;;;;;;5.57;2.00;;;;;;;0.81;100.00;103054.84;5058001;28;20086;-72
2024/01/08 03:35:31;;;;;;;4.55;1.80;;;;;;;0.81;100.00;103044.53;5070399;28;20214;-72
2024/01/08 03:37:57;;;;;;;5.70;2.20;;;;;;;0.77;100.00;103057.25;5068770;28;20410;-72
2024/01/08 03:40:24;;;;;;;3.28;1.67;;;;;;;0.74;100.00;103058.91;5080465;28;20134;-72
2024/01/08 03:42:51;;;;;;;4.43;1.70;;;;;;;0.75;100.00;103058.06;5080838;28;20056;-72
2024/01/08 03:45:17;;;;;;;3.15;1.60;;;;;;;0.59;100.00;103049.69;5070354;28;20044;-72
2024/01/08 03:47:44;;;;;;;5.70;1.90;;;;;;;0.62;100.00;103063.56;5056201;28;20048;-72
2024/01/08 03:50:11;;;;;;;5.20;1.80;;;;;;;0.58;100.00;103056.50;5070104;28;20343;-72
2024/01/08 03:52:38;;;;;;;4.30;1.73;;;;;;;0.62;100.00;103063.56;5069597;28;20508;-72
2024/01/08 03:55:06;;;;;;;3.92;1.70;;;;;;;0.66;100.00;103078.34;5070033;28;20056;-72
2024/01/08 03:57:33;;;;;;;5.05;1.77;;;;;;;0.65;100.00;103071.41;5073905;28;20048;-71
2024/01/08 04:00:00;;;;;;;4.65;1.80;;;;;;;0.75;100.00;103083.88;5074533;28;20044;-72
2024/01/08 04:02:27;;;;;;;4.70;2.10;;;;;;;0.95;100.00;103074.34;5069400;28;20072;-72
2024/01/08 04:04:54;;;;;;;4.35;1.73;;;;;;;0.95;100.00;103082.06;5059057;28;20057;-71
2024/01/08 04:07:20;;;;;;;4.72;1.70;;;;;;;1.07;100.00;103084.25;5069754;28;20088;-72
2024/01/08 04:09:47;;;;;;;5.43;1.88;;;;;;;1.01;100.00;103089.19;5069150;28;20048;-72
2024/01/08 04:12:14;;;;;;;4.38;1.73;;;;;;;0.78;100.00;103098.59;5066152;28;20044;-71
2024/01/08 04:14:41;;;;;;;3.92;1.88;;;;;;;0.86;100.00;103099.75;5068660;28;20052;-71
2024/01/08 04:17:08;;;;;;;5.45;1.88;;;;;;;0.71;100.00;103094.00;5065491;28;20921;-72
2024/01/08 04:19:34;;;;;;;4.22;1.80;;;;;;;0.68;100.00;103094.75;5067788;28;20056;-72
2024/01/08 04:22:01;;;;;;;4.20;1.75;;;;;;;0.59;100.00;103096.09;5058858;28;20056;-72
2024/01/08 04:24:28;;;;;;;4.68;1.73;;;;;;;0.56;100.00;103091.66;5064440;28;20092;-71
2024/01/08 04:26:54;;;;;;;4.60;1.85;;;;;;;0.64;100.00;103105.75;5069572;28;20048;-71
2024/01/08 04:29:21;;;;;;;3.60;1.73;;;;;;;0.59;100.00;103099.53;5069486;28;20048;-72
2024/01/08 04:31:48;;;;;;;3.85;1.60;;;;;;;0.56;100.00;103107.13;5074403;28;20052;-72
2024/01/08 04:34:15;;;;;;;4.18;1.65;;;;;;;0.57;100.00;103103.75;5074741;28;20067;-72
2024/01/08 04:36:43;;;;;;;3.67;1.70;;;;;;;0.56;100.00;103113.16;5069012;28;20509;-72
2024/01/08 04:39:10;;;;;;;3.33;1.70;;;;;;;0.52;100.00;103098.38;5067610;28;20056;-72
2024/01/08 04:41:37;;;;;;;4.93;1.90;;;;;;;0.72;100.00;103109.50;5068190;28;20048;-72
2024/01/08 04:44:05;;;;;;;4.35;1.67;;;;;;;0.97;100.00;103114.81;5068846;28;20105;-72
2024/01/08 04:46:32;;;;;;;6.68;1.85;;;;;;;0.88;100.00;103085.22;5070889;28;20458;-72
2024/01/08 04:48:59;;;;;;;5.00;1.85;;;;;;;1.01;100.00;103112.41;5062254;28;20072;-71
2024/01/08 04:51:26;;;;;;;4.63;1.70;;;;;;;0.90;100.00;103090.44;5062394;28;20497;-72
2024/01/08 04:53:52;;;;;;;4.45;1.90;;;;;;;1.01;100.00;103115.00;5063213;28;20048;-72
2024/01/08 04:56:23;;;;;;;5.18;1.80;;;;;;;0.99;100.00;103095.09;5061598;28;20273;-72
2024/01/08 04:58:53;;;;;;;2.90;1.50;;;;;;;1.06;100.00;103113.50;5069360;28;20143;-72
2024/01/08 05:01:20;;;;;;;3.75;1.80;;;;;;;1.04;100.00;103112.53;5074706;28;20409;-72
2024/01/08 05:03:47;;;;;;;4.05;1.77;;;;;;;1.09;100.00;103111.00;5083354;28;20048;-72
2024/01/08 05:06:14;;;;;;;3.90;1.80;;;;;;;0.89;100.00;103099.91;5069454;28;20056;-72
2024/01/08 05:08:41;;;;;;;3.75;1.63;;;;;;;0.99;100.00;103100.25;5072510;28;20406;-72
2024/01/08 05:11:08;;;;;;;6.47;1.92;;;;;;;0.96;100.00;103095.88;5071927;28;20055;-72
2024/01/08 05:13:35;;;;;;;4.78;2.08;;;;;;;0.87;100.00;103098.97;5069062;28;20052;-72
2024/01/08 05:16:02;;;;;;;5.72;1.90;;;;;;;0.88;100.00;103097.25;5077677;28;20051;-72
2024/01/08 05:18:29;;;;;;;5.22;2.00;;;;;;;0.97;100.00;103107.06;5076855;28;20044;-72
2024/01/08 05:20:56;;;;;;;5.20;1.90;;;;;;;0.91;100.00;103100.84;5070265;28;20049;-72
2024/01/08 05:23:23;;;;;;;4.60;1.85;;;;;;;0.94;100.00;103107.84;5080434;28;20080;-72
2024/01/08 05:25:50;;;;;;;5.15;1.80;;;;;;;0.91;100.00;103103.41;5072623;28;20053;-72
2024/01/08 05:28:17;;;;;;;8.18;2.75;;;;;;;0.78;100.00;103080.53;5071888;28;20079;-72
2024/01/08 05:30:43;;;;;;;4.00;1.80;;;;;;;0.91;100.00;103106.00;5072896;28;20409;-72
2024/01/08 05:33:10;;;;;;;8.30;2.10;;;;;;;0.94;100.00;103107.84;5073087;28;20045;-72
2024/01/08 05:35:37;;;;;;;4.90;2.00;;;;;;;0.95;100.00;103101.84;5080174;28;20056;-72
2024/01/08 05:38:05;;;;;;;5.57;2.20;;;;;;;1.05;100.00;103097.94;5071139;28;20040;-72
2024/01/08 05:40:31;;;;;;;9.18;2.25;;;;;;;1.02;100.00;103102.97;5071701;28;20048;-72
2024/01/08 05:42:58;;;;;;;5.15;2.20;;;;;;;1.05;100.00;103108.25;5071916;28;20110;-72
2024/01/08 05:45:25;;;;;;;6.05;2.20;;;;;;;1.04;100.00;103099.63;5072484;28;20044;-72
2024/01/08 05:47:53;;;;;;;4.78;1.90;;;;;;;1.06;100.00;103110.91;5071893;28;20059;-72
2024/01/08 05:50:22;;;;;;;6.43;1.80;;;;;;;1.08;100.00;103109.25;5064948;28;20048;-72
2024/01/08 05:52:48;;;;;;;4.50;1.73;;;;;;;1.05;100.00;103103.09;5071180;28;20087;-72
2024/01/08 05:55:15;;;;;;;6.53;3.10;;;;;;;1.06;100.00;103100.59;5069883;28;20470;-72
2024/01/08 05:57:42;;;;;;;4.28;1.70;;;;;;;0.99;100.00;103110.56;5074333;28;20052;-72
2024/01/08 06:00:09;;;;;;;5.97;1.90;;;;;;;1.00;100.00;103113.22;5072419;28;20051;-72
2024/01/08 06:02:35;;;;;;;5.28;1.90;;;;;;;1.00;100.00;103107.19;5071279;28;20441;-72
2024/01/08 06:05:03;;;;;;;5.50;2.00;;;;;;;1.01;100.00;103117.59;5071296;28;20062;-72
2024/01/08 06:07:29;;;;;;;4.18;1.90;;;;;;;0.82;100.00;103118.53;5066861;28;20056;-72
2024/01/08 06:09:56;;;;;;;3.28;1.60;;;;;;;0.54;100.00;103096.75;5073053;28;20044;-72
2024/01/08 06:12:22;;;;;;;7.20;2.00;;;;;;;0.43;100.00;103110.91;5073033;28;20056;-72
2024/01/08 06:14:49;;;;;;;5.00;2.05;;;;;;;0.37;100.00;103101.22;5064943;28;20053;-72
2024/01/08 06:17:17;;;;;;;4.95;1.70;;;;;;;0.47;100.00;103120.50;5055932;28;20409;-72
2024/01/08 06:19:43;;;;;;;4.93;1.95;;;;;;;0.41;100.00;103121.94;5069017;28;20052;-72
2024/01/08 06:22:10;;;;;;;8.98;2.50;;;;;;;0.45;100.00;103129.00;5076379;28;20052;-72
2024/01/08 06:24:37;;;;;;;7.40;2.13;;;;;;;0.42;100.00;103116.84;5068718;28;20118;-72
2024/01/08 06:27:04;;;;;;;5.10;1.88;;;;;;;0.43;100.00;103122.91;5071953;28;20063;-72
2024/01/08 06:29:30;;;;;;;5.30;1.83;;;;;;;0.43;100.00;103123.78;5075550;28;20482;-72
2024/01/08 06:31:57;;;;;;;5.85;1.90;;;;;;;0.40;100.00;103120.19;5061044;28;20088;-71
2024/01/08 06:34:24;;;;;;;4.07;1.70;;;;;;;0.40;100.00;103128.81;5066913;28;20064;-72
2024/01/08 06:36:51;;;;;;;5.50;2.42;;;;;;;0.43;100.00;103136.66;5059649;28;20067;-72
2024/01/08 06:39:18;;;;;;;3.88;1.60;;;;;;;0.44;100.00;103133.25;5070500;28;20041;-72
2024/01/08 06:41:44;;;;;;;7.93;1.88;;;;;;;0.38;100.00;103130.44;5063478;28;20382;-72
2024/01/08 06:44:11;;;;;;;3.95;1.70;;;;;;;0.39;100.00;103132.22;5069921;28;20044;-72
2024/01/08 06:46:38;;;;;;;3.63;1.58;;;;;;;0.37;100.00;103129.56;5066530;28;20562;-72
2024/01/08 06:49:04;;;;;;;5.93;1.88;;;;;;;0.37;100.00;103126.09;5075718;28;20036;-72
2024/01/08 06:51:37;;;;;;;4.43;1.80;;;;;;;0.35;100.00;103123.47;5070505;28;20076;-72
2024/01/08 06:54:03;;;;;;;4.32;1.73;;;;;;;0.37;100.00;103133.81;5070875;28;20055;-72
2024/01/08 06:56:30;;;;;;;6.53;2.10;;;;;;;0.36;100.00;103140.66;5068660;28;20561;-72
2024/01/08 06:58:57;;;;;;;4.40;1.90;;;;;;;0.31;100.00;103139.59;5060395;28;20051;-72
2024/01/08 07:01:23;;;;;;;4.53;1.77;;;;;;;0.29;100.00;103136.06;5060549;28;20125;-72
2024/01/08 07:03:50;;;;;;;4.82;1.70;;;;;;;0.29;100.00;103140.34;5075242;28;20514;-72
2024/01/08 07:06:17;;;;;;;4.32;1.58;;;;;;;0.20;100.00;103130.53;5065132;28;20487;-72
2024/01/08 07:08:45;;;;;;;5.68;1.83;;;;;;;0.25;100.00;103153.91;5069269;28;20732;-72
2024/01/08 07:11:24;;;;;;;4.20;1.75;;;;;;;0.24;100.00;103152.16;5061497;28;20334;-71
2024/01/08 07:13:51;;;;;;;4.55;1.65;;;;;;;0.15;100.00;103145.78;5061773;28;20052;-71
2024/01/08 07:16:18;;;;;;;4.25;1.83;;;;;;;0.18;100.00;103155.34;5069582;28;20048;-71
2024/01/08 07:18:45;;;;;;;3.63;1.60;;;;;;;0.16;100.00;103157.84;5069919;28;20051;-72
2024/01/08 07:21:16;;;;;;;5.13;1.60;;;;;;;0.23;100.00;103171.00;5057825;28;20051;-71
2024/01/08 07:23:45;;;;;;;5.18;2.22;;;;;;;0.12;100.00;103170.53;5069757;28;20819;-71
2024/01/08 07:26:14;;;;;;;4.80;1.70;;;;;;;0.13;100.00;103162.88;5069574;28;20135;-71
2024/01/08 07:28:45;;;;;;;4.00;1.90;;;;;;;0.13;100.00;103164.56;5074063;28;20083;-71
2024/01/08 07:31:13;;;;;;;5.32;2.20;;;;;;;0.05;100.00;103156.47;5068659;28;20479;-71
2024/01/08 07:33:41;;;;;;;4.28;1.80;;;;;;;0.11;100.00;103161.91;5069448;28;20060;-71
2024/01/08 07:36:09;;;;;;;5.95;2.03;;;;;;;0.11;100.00;103163.63;5066710;28;20048;-71
2024/01/08 07:38:36;;;;;;;6.82;2.92;;;;;;;0.18;100.00;103170.81;5067706;28;20044;-71
2024/01/08 07:41:04;;;;;;;4.82;2.10;;;;;;;0.11;100.00;103164.50;5069618;28;20478;-71
2024/01/08 07:43:31;;;;;;;4.30;2.00;;;;;;;0.09;100.00;103172.94;5068737;28;20055;-71
2024/01/08 07:45:57;;;;;;;3.70;1.80;;;;;;;0.08;100.00;103169.50;5070028;28;20085;-71
2024/01/08 07:48:24;;;;;;;6.13;2.25;;;;;;;0.02;100.00;103165.75;5073656;28;20057;-71
2024/01/08 07:50:51;;;;;;;5.18;1.98;;;;;;;0.01;100.00;103172.63;5060579;28;20048;-71
2024/01/08 07:53:17;;;;;;;5.25;1.80;;;;;;;0.01;100.00;103164.88;5057706;28;20076;-71
2024/01/08 07:55:44;;;;;;;4.78;1.88;;;;;;;-0.01;100.00;103172.53;5068331;28;20063;-71
2024/01/08 07:58:14;;;;;;;5.05;2.05;;;;;;;0.07;100.00;103192.63;5069624;28;20052;-71
2024/01/08 08:00:41;;;;;;;4.95;1.92;;;;;;;0.10;100.00;103203.94;5077261;28;20064;-71
2024/01/08 08:03:08;;;;;;;5.90;2.20;;;;;;;0.05;100.00;103187.38;5069958;28;20090;-71
2024/01/08 08:05:35;;;;;;;6.30;2.22;;;;;;;0.08;100.00;103202.13;5081611;28;20044;-71
2024/01/08 08:08:02;;;;;;;5.60;2.10;;;;;;;0.05;100.00;103205.41;5070083;28;20144;-71
2024/01/08 08:10:29;;;;;;;5.32;2.15;;;;;;;0.02;100.00;103204.41;5067660;28;20371;-71
2024/01/08 08:12:56;;;;;;;5.13;1.90;;;;;;;0.08;100.00;103215.88;5062644;28;20599;-71
2024/01/08 08:15:23;;;;;;;6.32;2.20;;;;;;;0.08;100.00;103212.44;5048787;28;20064;-71
2024/01/08 08:17:50;;;;;;;5.78;2.40;;;;;;;0.06;100.00;103216.63;5063119;28;20053;-71
2024/01/08 08:20:18;;;;;;;4.93;2.00;;;;;;;0.05;100.00;103210.56;5063335;28;20044;-71
2024/01/08 08:22:45;;;;;;;5.22;2.15;;;;;;;0.01;100.00;103216.41;5061197;28;20044;-71
2024/01/08 08:25:17;;;;;;;5.32;2.05;;;;;;;0.03;100.00;103221.63;5063830;28;20041;-71
2024/01/08 08:27:45;;;;;;;4.30;1.83;;;;;;;0.03;100.00;103222.50;5055548;28;20052;-71
2024/01/08 08:30:12;;;;;;;6.38;2.00;;;;;;;-0.02;100.00;103217.16;5063155;28;20041;-71
2024/01/08 08:32:39;;;;;;;4.43;1.92;;;;;;;0.01;100.00;103225.84;5062623;28;20208;-71
2024/01/08 08:35:08;;;;;;;6.35;2.55;;;;;;;-0.15;100.00;103219.97;5054066;28;20060;-71
2024/01/08 08:37:36;;;;;;;4.72;2.00;;;;;;;-0.06;100.00;103229.81;5057736;28;20599;-71
2024/01/08 08:40:18;;;;;;;6.50;2.30;;;;;;;-0.06;100.00;103233.25;5057684;28;20048;-70
2024/01/08 08:42:44;;;;;;;7.10;2.53;;;;;;;0.03;100.00;103242.25;5053797;28;20049;-71
2024/01/08 08:45:11;;;;;;;4.60;1.80;;;;;;;-0.02;100.00;103242.91;5050286;28;20056;-71
2024/01/08 08:47:38;;;;;;;6.78;2.38;;;;;;;-0.07;100.00;103238.34;5058335;28;20548;-71
2024/01/08 08:50:05;;;;;;;4.15;1.85;;;;;;;0.07;100.00;103238.97;5056180;28;20041;-71
2024/01/08 08:52:32;;;;;;;4.22;1.77;;;;;;;0.13;100.00;103241.84;5066119;28;20048;-71
2024/01/08 08:54:58;;;;;;;5.32;2.00;;;;;;;0.13;100.00;103252.16;5049906;28;20041;-71
2024/01/08 08:57:25;;;;;;;4.45;1.70;;;;;;;0.15;100.00;103251.41;5054065;28;20052;-71
2024/01/08 08:59:51;;;;;;;5.65;2.00;;;;;;;0.14;100.00;103248.75;5072979;28;20040;-71
2024/01/08 09:02:19;;;;;;;5.30;2.10;;;;;;;0.18;100.00;103254.13;5058434;28;20102;-71
2024/01/08 09:04:45;;;;;;;3.53;1.50;;;;;;;0.21;100.00;103234.47;5057672;28;20512;-71
2024/01/08 09:07:12;;;;;;;4.57;1.77;;;;;;;0.42;100.00;103252.59;5061279;28;20045;-71
2024/01/08 09:09:39;;;;;;;7.57;2.75;;;;;;;0.25;100.00;103246.66;5068789;28;20520;-71
2024/01/08 09:12:06;;;;;;;4.07;1.88;;;;;;;0.43;100.00;103265.56;5060460;28;20413;-71
2024/01/08 09:14:33;;;;;;;4.82;1.95;;;;;;;0.60;100.00;103258.56;5065287;28;20040;-71
2024/01/08 09:17:02;;;;;;;7.25;2.10;;;;;;;0.62;100.00;103256.94;5055397;28;20144;-71
2024/01/08 09:19:29;;;;;;;4.88;1.85;;;;;;;0.70;100.00;103252.13;5061135;28;20049;-71
2024/01/08 09:21:55;;;;;;;5.25;1.90;;;;;;;0.84;100.00;103270.78;5051479;28;20053;-71
2024/01/08 09:24:22;;;;;;;5.50;1.88;;;;;;;0.95;100.00;103269.53;5062344;28;20048;-71
2024/01/08 09:26:49;;;;;;;4.28;1.60;;;;;;;1.04;100.00;103271.63;5056424;28;20398;-71
2024/01/08 09:29:15;;;;;;;5.88;2.05;;;;;;;0.97;100.00;103261.84;5062782;28;20107;-71
2024/01/08 09:31:42;;;;;;;3.75;1.77;;;;;;;1.10;100.00;103264.16;5058458;28;20442;-71
2024/01/08 09:34:09;;;;;;;4.72;1.65;;;;;;;1.18;100.00;103267.03;5054981;28;20139;-71
2024/01/08 09:36:35;;;;;;;4.55;1.67;;;;;;;1.13;100.00;103267.75;5058092;28;20080;-71
2024/01/08 09:39:02;;;;;;;6.05;2.03;;;;;;;1.07;100.00;103256.28;5059160;28;20045;-71
2024/01/08 09:41:30;;;;;;;7.03;2.10;;;;;;;1.09;100.00;103263.25;5055751;28;20439;-71
2024/01/08 09:44:02;;;;;;;3.47;1.52;;;;;;;1.23;100.00;103260.38;5049600;28;20494;-71
2024/01/08 09:46:39;;;;;;;7.70;2.40;;;;;;;1.30;100.00;103273.59;5053118;28;20353;-71
2024/01/08 09:49:08;;;;;;;5.03;1.90;;;;;;;1.36;100.00;103272.06;5067387;28;20299;-71
2024/01/08 09:51:34;;;;;;;3.75;1.73;;;;;;;1.47;100.00;103279.47;5060868;28;20494;-71
2024/01/08 09:54:04;;;;;;;6.30;2.15;;;;;;;1.32;100.00;103268.50;5063424;28;20546;-71
2024/01/08 09:56:31;;;;;;;8.90;2.60;;;;;;;1.51;100.00;103283.03;5062863;28;20505;-73
2024/01/08 09:58:57;;;;;;;9.13;3.03;;;;;;;1.71;100.00;103286.41;5071782;28;20052;-70
2024/01/08 10:01:24;;;;;;;9.82;3.47;;;;;;;1.80;100.00;103291.06;5072255;28;20448;-71
2024/01/08 10:03:52;;;;;;;16.25;4.60;;;;;;;1.62;100.00;103286.06;5063924;28;20045;-71
2024/01/08 10:06:19;;;;;;;10.10;3.10;;;;;;;1.76;100.00;103292.66;5063291;28;20049;-72
2024/01/08 10:08:46;;;;;;;10.75;2.97;;;;;;;1.57;100.00;103283.28;5063952;28;20060;-73
2024/01/08 10:11:13;;;;;;;6.18;2.30;;;;;;;1.66;100.00;103281.06;5054679;28;20285;-72
2024/01/08 10:13:40;;;;;;;7.25;2.30;;;;;;;1.89;100.00;103266.50;5068383;28;20405;-70
2024/01/08 10:16:08;;;;;;;7.03;2.65;;;;;;;1.96;100.00;103292.56;5063205;28;20055;-72
2024/01/08 10:18:35;;;;;;;7.97;2.65;;;;;;;1.65;100.00;103261.22;5064032;28;20151;-73
2024/01/08 10:21:10;;;;;;;6.88;2.60;;;;;;;1.97;100.00;103287.44;5066867;28;20159;-72
2024/01/08 10:23:37;;;;;;;9.00;3.03;;;;;;;1.98;100.00;103278.84;5064744;28;20048;-72
2024/01/08 10:26:04;;;;;;;8.73;3.35;;;;;;;2.11;100.00;103277.66;5053940;28;20469;-72
2024/01/08 10:28:37;;;;;;;7.93;2.90;;;;;;;2.22;100.00;103281.50;5061824;28;20047;-72
2024/01/08 10:31:05;;;;;;;;;;;;;;;2.37;100.00;103281.19;5062596;28;20049;-72
2024/01/08 10:33:32;;;;;;;8.15;2.70;;;;;;;2.45;100.00;103278.91;5055111;28;20274;-72
2024/01/08 10:36:04;;;;;;;8.10;2.58;;;;;;;2.13;100.00;103254.44;5055608;28;20465;-72
2024/01/08 10:38:32;;;;;;;6.30;2.40;;;;;;;2.33;100.00;103271.56;5055874;28;20055;-72
2024/01/08 10:41:03;;;;;;;7.15;2.45;;;;;;;2.38;100.00;103272.63;5058567;28;20048;-73
2024/01/08 10:43:30;;;;;;;8.13;2.78;;;;;;;2.37;100.00;103281.19;5060424;28;20552;-71
2024/01/08 10:45:59;;;;;;;8.32;2.63;;;;;;;2.44;100.00;103272.88;5056343;28;20153;-71
2024/01/08 10:48:40;;;;;;;5.88;2.03;;;;;;;2.50;100.00;103271.31;5060944;28;20048;-71
2024/01/08 10:51:08;;;;;;;6.40;2.33;;;;;;;2.49;100.00;103267.84;5059088;28;20107;-71
2024/01/08 10:53:45;;;;;;;5.25;1.90;;;;;;;2.39;100.00;103235.63;5056306;28;20076;-71
2024/01/08 10:56:17;;;;;;;4.97;1.70;;;;;;;2.59;100.00;103262.19;5056074;28;20059;-70
2024/01/08 10:58:54;;;;;;;4.65;2.00;;;;;;;2.24;100.00;103271.22;5060583;28;20101;-73
2024/01/08 11:01:21;;;;;;;5.72;2.33;;;;;;;2.09;100.00;103259.50;5064051;28;20137;-72
2024/01/08 11:03:48;;;;;;;8.43;1.80;;;;;;;2.16;100.00;103264.88;5064259;28;20491;-70
2024/01/08 11:06:15;;;;;;;3.75;1.50;;;;;;;2.17;100.00;103254.59;5061970;28;20131;-70
2024/01/08 11:08:42;;;;;;;7.20;2.15;;;;;;;2.27;100.00;103256.72;5063782;28;20052;-71
2024/01/08 11:11:11;;;;;;;5.60;1.85;;;;;;;2.22;100.00;103252.22;5067981;28;20055;-71
2024/01/08 11:13:40;;;;;;;10.32;3.72;;;;;;;1.98;100.00;103270.22;5069818;28;20101;-71
2024/01/08 11:16:08;;;;;;;7.53;2.53;;;;;;;2.09;100.00;103262.09;5071384;28;20049;-72
2024/01/08 11:18:38;;;;;;;7.78;2.60;;;;;;;2.18;100.00;103271.91;5072738;28;20143;-71
2024/01/08 11:21:05;;;;;;;9.38;2.80;;;;;;;2.25;100.00;103273.00;5075207;28;20302;-71
2024/01/08 11:23:40;;;;;;;6.18;2.10;;;;;;;2.22;100.00;103270.31;5071108;28;20071;-70
2024/01/08 11:26:20;;;;;;;7.47;2.60;;;;;;;2.30;100.00;103274.03;5070145;28;20098;-70